Weather at Warner Airport

Public forecast

Using degrees Celsius for public forecast. Weather courtesy of forecast.io.

Closest aviation weather report (METAR) to Warner Airport

Closest report is Lethbridge County Airport, 31.3 nm (57.9 km) NW.

2024/07/15 15:00 (retrieved 23 minutes ago)

CYQL 151500Z CCA 18006KT 30SM SCT110 19/14 A2998 RMK AC3 SLP147 DENSITY ALT 4200FT

Closest aviation forecast (TAF) to Warner Airport

Closest forecast is Lethbridge County Airport, 31.3 nm (57.9 km) NW.

2024/07/15 13:09 Ammendment (retrieved 2 hours ago)

TAF AMD CYQL 151307Z 1513/1524 18005KT P6SM SCT100 BECMG 1519/1521 02010KT RMK NXT FCST BY 151800Z